sensor_id;sensor_type;location;lat;lon;timestamp;P1;durP1;ratioP1;P2;durP2;ratioP2
57846;SDS011;43675;50.030;21.952;2024-02-21T00:00:30;31.20;;;28.40;;
57846;SDS011;43675;50.030;21.952;2024-02-21T00:03:17;30.60;;;27.90;;
57846;SDS011;43675;50.030;21.952;2024-02-21T00:05:44;30.30;;;27.60;;
57846;SDS011;43675;50.030;21.952;2024-02-21T00:08:11;31.70;;;28.80;;
57846;SDS011;43675;50.030;21.952;2024-02-21T00:10:49;30.00;;;27.20;;
57846;SDS011;43675;50.030;21.952;2024-02-21T00:13:16;30.50;;;27.80;;
57846;SDS011;43675;50.030;21.952;2024-02-21T00:15:43;30.90;;;28.20;;
57846;SDS011;43675;50.030;21.952;2024-02-21T00:18:19;29.00;;;26.40;;
57846;SDS011;43675;50.030;21.952;2024-02-21T00:20:48;27.90;;;25.50;;
57846;SDS011;43675;50.030;21.952;2024-02-21T00:23:18;29.40;;;26.70;;
57846;SDS011;43675;50.030;21.952;2024-02-21T00:25:47;28.50;;;26.00;;
57846;SDS011;43675;50.030;21.952;2024-02-21T00:28:14;28.60;;;26.00;;
57846;SDS011;43675;50.030;21.952;2024-02-21T00:30:41;28.20;;;25.70;;
57846;SDS011;43675;50.030;21.952;2024-02-21T00:33:08;30.30;;;27.70;;
57846;SDS011;43675;50.030;21.952;2024-02-21T00:35:38;30.30;;;27.70;;
57846;SDS011;43675;50.030;21.952;2024-02-21T00:38:07;30.50;;;28.00;;
57846;SDS011;43675;50.030;21.952;2024-02-21T00:40:37;31.40;;;28.70;;
57846;SDS011;43675;50.030;21.952;2024-02-21T00:43:11;32.30;;;29.60;;
57846;SDS011;43675;50.030;21.952;2024-02-21T00:45:40;32.70;;;30.00;;
57846;SDS011;43675;50.030;21.952;2024-02-21T00:48:07;34.00;;;31.10;;
57846;SDS011;43675;50.030;21.952;2024-02-21T00:50:37;36.40;;;33.20;;
57846;SDS011;43675;50.030;21.952;2024-02-21T00:53:06;37.10;;;34.00;;
57846;SDS011;43675;50.030;21.952;2024-02-21T00:55:33;38.40;;;35.00;;
57846;SDS011;43675;50.030;21.952;2024-02-21T00:58:03;38.90;;;35.40;;
57846;SDS011;43675;50.030;21.952;2024-02-21T01:00:35;38.70;;;35.10;;
57846;SDS011;43675;50.030;21.952;2024-02-21T01:03:04;37.90;;;34.40;;
57846;SDS011;43675;50.030;21.952;2024-02-21T01:05:35;38.20;;;34.70;;
57846;SDS011;43675;50.030;21.952;2024-02-21T01:08:07;37.20;;;33.90;;
57846;SDS011;43675;50.030;21.952;2024-02-21T01:10:50;37.10;;;33.70;;
57846;SDS011;43675;50.030;21.952;2024-02-21T01:13:23;34.90;;;31.80;;
57846;SDS011;43675;50.030;21.952;2024-02-21T01:15:52;34.70;;;31.70;;
57846;SDS011;43675;50.030;21.952;2024-02-21T01:18:19;34.80;;;31.70;;
57846;SDS011;43675;50.030;21.952;2024-02-21T01:20:46;35.50;;;32.20;;
57846;SDS011;43675;50.030;21.952;2024-02-21T01:23:13;33.20;;;30.40;;
57846;SDS011;43675;50.030;21.952;2024-02-21T01:25:40;33.60;;;30.40;;
57846;SDS011;43675;50.030;21.952;2024-02-21T01:28:07;34.20;;;31.10;;
57846;SDS011;43675;50.030;21.952;2024-02-21T01:30:34;33.70;;;30.80;;
57846;SDS011;43675;50.030;21.952;2024-02-21T01:33:01;32.80;;;29.80;;
57846;SDS011;43675;50.030;21.952;2024-02-21T01:35:27;32.80;;;30.00;;
57846;SDS011;43675;50.030;21.952;2024-02-21T01:37:54;32.50;;;29.60;;
57846;SDS011;43675;50.030;21.952;2024-02-21T01:40:21;32.20;;;29.40;;
57846;SDS011;43675;50.030;21.952;2024-02-21T01:42:47;31.70;;;28.90;;
57846;SDS011;43675;50.030;21.952;2024-02-21T01:45:14;31.10;;;28.20;;
57846;SDS011;43675;50.030;21.952;2024-02-21T01:47:41;31.20;;;28.40;;
57846;SDS011;43675;50.030;21.952;2024-02-21T01:50:08;29.90;;;27.40;;
57846;SDS011;43675;50.030;21.952;2024-02-21T01:52:35;29.60;;;27.00;;
57846;SDS011;43675;50.030;21.952;2024-02-21T01:55:02;28.80;;;26.30;;
57846;SDS011;43675;50.030;21.952;2024-02-21T01:57:31;30.30;;;27.60;;
57846;SDS011;43675;50.030;21.952;2024-02-21T01:59:59;30.20;;;27.60;;
57846;SDS011;43675;50.030;21.952;2024-02-21T02:02:26;29.50;;;27.00;;
57846;SDS011;43675;50.030;21.952;2024-02-21T02:04:53;30.00;;;27.40;;
57846;SDS011;43675;50.030;21.952;2024-02-21T02:07:27;28.10;;;25.70;;
57846;SDS011;43675;50.030;21.952;2024-02-21T02:09:54;28.10;;;25.60;;
57846;SDS011;43675;50.030;21.952;2024-02-21T02:12:21;29.30;;;26.60;;
57846;SDS011;43675;50.030;21.952;2024-02-21T02:14:57;28.80;;;26.30;;
57846;SDS011;43675;50.030;21.952;2024-02-21T02:17:27;28.20;;;25.80;;
57846;SDS011;43675;50.030;21.952;2024-02-21T02:19:54;25.80;;;23.60;;
57846;SDS011;43675;50.030;21.952;2024-02-21T02:22:22;25.70;;;23.60;;
57846;SDS011;43675;50.030;21.952;2024-02-21T02:24:55;26.60;;;24.10;;
57846;SDS011;43675;50.030;21.952;2024-02-21T02:27:22;25.90;;;23.70;;
57846;SDS011;43675;50.030;21.952;2024-02-21T02:29:48;25.30;;;23.20;;
57846;SDS011;43675;50.030;21.952;2024-02-21T02:32:15;25.10;;;22.80;;
57846;SDS011;43675;50.030;21.952;2024-02-21T02:34:42;25.40;;;23.00;;
57846;SDS011;43675;50.030;21.952;2024-02-21T02:37:09;25.70;;;23.20;;
57846;SDS011;43675;50.030;21.952;2024-02-21T02:39:39;25.50;;;23.10;;
57846;SDS011;43675;50.030;21.952;2024-02-21T02:42:08;25.50;;;23.20;;
57846;SDS011;43675;50.030;21.952;2024-02-21T02:44:34;25.20;;;22.90;;
57846;SDS011;43675;50.030;21.952;2024-02-21T02:47:01;25.10;;;22.80;;
57846;SDS011;43675;50.030;21.952;2024-02-21T02:49:28;25.40;;;23.20;;
57846;SDS011;43675;50.030;21.952;2024-02-21T02:51:55;25.50;;;23.10;;
57846;SDS011;43675;50.030;21.952;2024-02-21T02:54:21;24.70;;;22.50;;
57846;SDS011;43675;50.030;21.952;2024-02-21T02:56:49;24.20;;;22.20;;
57846;SDS011;43675;50.030;21.952;2024-02-21T02:59:18;24.70;;;22.60;;
57846;SDS011;43675;50.030;21.952;2024-02-21T03:01:45;24.80;;;22.60;;
57846;SDS011;43675;50.030;21.952;2024-02-21T03:04:22;25.10;;;22.80;;
57846;SDS011;43675;50.030;21.952;2024-02-21T03:06:58;24.90;;;22.70;;
57846;SDS011;43675;50.030;21.952;2024-02-21T03:09:28;25.00;;;22.70;;
57846;SDS011;43675;50.030;21.952;2024-02-21T03:11:55;25.10;;;22.80;;
57846;SDS011;43675;50.030;21.952;2024-02-21T03:14:25;24.10;;;22.00;;
57846;SDS011;43675;50.030;21.952;2024-02-21T03:16:54;25.90;;;23.30;;
57846;SDS011;43675;50.030;21.952;2024-02-21T03:19:24;23.90;;;21.80;;
57846;SDS011;43675;50.030;21.952;2024-02-21T03:21:51;24.30;;;22.10;;
57846;SDS011;43675;50.030;21.952;2024-02-21T03:24:18;24.20;;;21.80;;
57846;SDS011;43675;50.030;21.952;2024-02-21T03:26:46;25.00;;;22.50;;
57846;SDS011;43675;50.030;21.952;2024-02-21T03:29:14;25.70;;;23.40;;
57846;SDS011;43675;50.030;21.952;2024-02-21T03:31:41;26.90;;;24.50;;
57846;SDS011;43675;50.030;21.952;2024-02-21T03:34:11;27.30;;;24.80;;
57846;SDS011;43675;50.030;21.952;2024-02-21T03:36:37;29.20;;;26.50;;
57846;SDS011;43675;50.030;21.952;2024-02-21T03:39:04;29.30;;;26.50;;
57846;SDS011;43675;50.030;21.952;2024-02-21T03:41:31;30.10;;;27.20;;
57846;SDS011;43675;50.030;21.952;2024-02-21T03:43:58;31.40;;;28.50;;
57846;SDS011;43675;50.030;21.952;2024-02-21T03:46:25;32.00;;;29.00;;
57846;SDS011;43675;50.030;21.952;2024-02-21T03:48:54;33.10;;;29.80;;
57846;SDS011;43675;50.030;21.952;2024-02-21T03:51:33;34.20;;;31.00;;
57846;SDS011;43675;50.030;21.952;2024-02-21T03:54:09;36.30;;;32.70;;
57846;SDS011;43675;50.030;21.952;2024-02-21T03:56:38;37.00;;;33.30;;
57846;SDS011;43675;50.030;21.952;2024-02-21T03:59:06;37.50;;;33.80;;
57846;SDS011;43675;50.030;21.952;2024-02-21T04:01:36;36.30;;;32.60;;
57846;SDS011;43675;50.030;21.952;2024-02-21T04:04:08;38.20;;;34.60;;
57846;SDS011;43675;50.030;21.952;2024-02-21T04:06:45;39.40;;;35.40;;
57846;SDS011;43675;50.030;21.952;2024-02-21T04:09:21;40.70;;;36.60;;
57846;SDS011;43675;50.030;21.952;2024-02-21T04:11:51;39.10;;;35.00;;
57846;SDS011;43675;50.030;21.952;2024-02-21T04:14:25;39.70;;;35.80;;
57846;SDS011;43675;50.030;21.952;2024-02-21T04:16:58;39.50;;;35.60;;
57846;SDS011;43675;50.030;21.952;2024-02-21T04:19:30;39.90;;;36.00;;
57846;SDS011;43675;50.030;21.952;2024-02-21T04:22:04;40.20;;;36.40;;
57846;SDS011;43675;50.030;21.952;2024-02-21T04:24:39;41.20;;;36.90;;
57846;SDS011;43675;50.030;21.952;2024-02-21T04:27:09;40.60;;;36.80;;
57846;SDS011;43675;50.030;21.952;2024-02-21T04:29:40;40.10;;;36.10;;
57846;SDS011;43675;50.030;21.952;2024-02-21T04:32:14;42.60;;;38.50;;
57846;SDS011;43675;50.030;21.952;2024-02-21T04:34:43;41.70;;;37.90;;
57846;SDS011;43675;50.030;21.952;2024-02-21T04:37:16;42.70;;;38.60;;
57846;SDS011;43675;50.030;21.952;2024-02-21T04:39:52;43.50;;;39.30;;
57846;SDS011;43675;50.030;21.952;2024-02-21T04:42:35;42.70;;;38.50;;
57846;SDS011;43675;50.030;21.952;2024-02-21T04:47:54;40.80;;;37.00;;
57846;SDS011;43675;50.030;21.952;2024-02-21T04:50:33;41.60;;;37.60;;
57846;SDS011;43675;50.030;21.952;2024-02-21T04:53:17;42.60;;;38.50;;
57846;SDS011;43675;50.030;21.952;2024-02-21T04:56:07;40.70;;;36.80;;
57846;SDS011;43675;50.030;21.952;2024-02-21T05:04:17;41.30;;;37.30;;
57846;SDS011;43675;50.030;21.952;2024-02-21T05:12:26;46.80;;;42.10;;
57846;SDS011;43675;50.030;21.952;2024-02-21T05:15:24;45.60;;;41.00;;
57846;SDS011;43675;50.030;21.952;2024-02-21T05:18:00;47.20;;;42.60;;
57846;SDS011;43675;50.030;21.952;2024-02-21T05:20:38;46.10;;;41.50;;
57846;SDS011;43675;50.030;21.952;2024-02-21T05:23:16;50.30;;;45.40;;
57846;SDS011;43675;50.030;21.952;2024-02-21T05:25:43;46.90;;;42.50;;
57846;SDS011;43675;50.030;21.952;2024-02-21T05:28:10;48.50;;;43.80;;
57846;SDS011;43675;50.030;21.952;2024-02-21T05:30:40;50.70;;;45.50;;
57846;SDS011;43675;50.030;21.952;2024-02-21T05:33:12;47.20;;;42.50;;
57846;SDS011;43675;50.030;21.952;2024-02-21T05:35:47;44.40;;;40.10;;
57846;SDS011;43675;50.030;21.952;2024-02-21T05:38:30;44.40;;;40.00;;
57846;SDS011;43675;50.030;21.952;2024-02-21T05:41:11;44.90;;;40.50;;
57846;SDS011;43675;50.030;21.952;2024-02-21T05:43:43;45.60;;;40.70;;
57846;SDS011;43675;50.030;21.952;2024-02-21T05:46:21;47.40;;;42.70;;
57846;SDS011;43675;50.030;21.952;2024-02-21T05:48:54;48.30;;;43.40;;
57846;SDS011;43675;50.030;21.952;2024-02-21T05:51:33;49.80;;;44.90;;
57846;SDS011;43675;50.030;21.952;2024-02-21T05:54:26;48.20;;;43.40;;
57846;SDS011;43675;50.030;21.952;2024-02-21T05:57:02;48.10;;;42.90;;
57846;SDS011;43675;50.030;21.952;2024-02-21T05:59:37;45.50;;;41.00;;
57846;SDS011;43675;50.030;21.952;2024-02-21T06:02:26;48.20;;;43.50;;
57846;SDS011;43675;50.030;21.952;2024-02-21T06:07:57;50.40;;;45.60;;
57846;SDS011;43675;50.030;21.952;2024-02-21T06:10:40;49.50;;;44.80;;
57846;SDS011;43675;50.030;21.952;2024-02-21T06:13:19;48.30;;;43.50;;
57846;SDS011;43675;50.030;21.952;2024-02-21T06:15:47;47.80;;;43.20;;
57846;SDS011;43675;50.030;21.952;2024-02-21T06:18:13;48.80;;;43.90;;
57846;SDS011;43675;50.030;21.952;2024-02-21T06:20:40;46.10;;;41.60;;
57846;SDS011;43675;50.030;21.952;2024-02-21T06:23:10;45.60;;;40.80;;
57846;SDS011;43675;50.030;21.952;2024-02-21T06:25:38;44.80;;;40.50;;
57846;SDS011;43675;50.030;21.952;2024-02-21T06:28:05;43.50;;;39.20;;
57846;SDS011;43675;50.030;21.952;2024-02-21T06:30:39;42.90;;;38.50;;
57846;SDS011;43675;50.030;21.952;2024-02-21T06:33:09;41.50;;;37.30;;
57846;SDS011;43675;50.030;21.952;2024-02-21T06:35:39;39.70;;;35.60;;
57846;SDS011;43675;50.030;21.952;2024-02-21T06:38:10;37.60;;;33.90;;
57846;SDS011;43675;50.030;21.952;2024-02-21T06:40:46;38.30;;;34.60;;
57846;SDS011;43675;50.030;21.952;2024-02-21T06:43:17;38.40;;;34.80;;
57846;SDS011;43675;50.030;21.952;2024-02-21T06:45:52;40.50;;;36.60;;
57846;SDS011;43675;50.030;21.952;2024-02-21T06:48:23;40.50;;;36.70;;
57846;SDS011;43675;50.030;21.952;2024-02-21T06:51:01;39.50;;;35.60;;
57846;SDS011;43675;50.030;21.952;2024-02-21T06:53:38;41.20;;;37.20;;
57846;SDS011;43675;50.030;21.952;2024-02-21T06:56:09;44.20;;;40.00;;
57846;SDS011;43675;50.030;21.952;2024-02-21T06:58:47;47.30;;;42.60;;
57846;SDS011;43675;50.030;21.952;2024-02-21T07:01:16;45.30;;;41.00;;
57846;SDS011;43675;50.030;21.952;2024-02-21T07:03:45;42.90;;;38.40;;
57846;SDS011;43675;50.030;21.952;2024-02-21T07:06:14;40.80;;;36.70;;
57846;SDS011;43675;50.030;21.952;2024-02-21T07:08:44;38.70;;;35.10;;
57846;SDS011;43675;50.030;21.952;2024-02-21T07:11:16;38.00;;;34.10;;
57846;SDS011;43675;50.030;21.952;2024-02-21T07:13:42;37.70;;;34.20;;
57846;SDS011;43675;50.030;21.952;2024-02-21T07:16:09;37.40;;;33.60;;
57846;SDS011;43675;50.030;21.952;2024-02-21T07:18:36;36.60;;;32.70;;
57846;SDS011;43675;50.030;21.952;2024-02-21T07:21:03;36.30;;;32.70;;
57846;SDS011;43675;50.030;21.952;2024-02-21T07:23:30;34.80;;;31.30;;
57846;SDS011;43675;50.030;21.952;2024-02-21T07:25:57;35.70;;;31.90;;
57846;SDS011;43675;50.030;21.952;2024-02-21T07:28:30;36.00;;;32.30;;
57846;SDS011;43675;50.030;21.952;2024-02-21T07:30:59;36.00;;;31.20;;
57846;SDS011;43675;50.030;21.952;2024-02-21T07:33:31;34.20;;;30.50;;
57846;SDS011;43675;50.030;21.952;2024-02-21T07:35:58;33.20;;;29.70;;
57846;SDS011;43675;50.030;21.952;2024-02-21T07:38:31;32.80;;;29.00;;
57846;SDS011;43675;50.030;21.952;2024-02-21T07:40:58;32.60;;;29.10;;
57846;SDS011;43675;50.030;21.952;2024-02-21T07:43:28;33.20;;;28.50;;
57846;SDS011;43675;50.030;21.952;2024-02-21T07:46:01;33.90;;;29.00;;
57846;SDS011;43675;50.030;21.952;2024-02-21T07:48:28;34.80;;;29.10;;
57846;SDS011;43675;50.030;21.952;2024-02-21T07:51:04;31.10;;;27.90;;
57846;SDS011;43675;50.030;21.952;2024-02-21T07:53:34;30.80;;;27.20;;
57846;SDS011;43675;50.030;21.952;2024-02-21T07:56:01;31.60;;;26.10;;
57846;SDS011;43675;50.030;21.952;2024-02-21T07:58:28;28.20;;;25.20;;
57846;SDS011;43675;50.030;21.952;2024-02-21T08:00:58;27.50;;;24.00;;
57846;SDS011;43675;50.030;21.952;2024-02-21T08:03:25;27.00;;;24.10;;
57846;SDS011;43675;50.030;21.952;2024-02-21T08:05:54;27.10;;;24.20;;
57846;SDS011;43675;50.030;21.952;2024-02-21T08:08:21;26.00;;;23.20;;
57846;SDS011;43675;50.030;21.952;2024-02-21T08:10:48;26.10;;;23.30;;
57846;SDS011;43675;50.030;21.952;2024-02-21T08:13:15;26.60;;;23.50;;
57846;SDS011;43675;50.030;21.952;2024-02-21T08:15:42;25.30;;;22.70;;
57846;SDS011;43675;50.030;21.952;2024-02-21T08:18:09;25.00;;;22.30;;
57846;SDS011;43675;50.030;21.952;2024-02-21T08:20:36;24.60;;;22.20;;
57846;SDS011;43675;50.030;21.952;2024-02-21T08:23:03;25.00;;;21.90;;
57846;SDS011;43675;50.030;21.952;2024-02-21T08:25:30;23.80;;;21.40;;
57846;SDS011;43675;50.030;21.952;2024-02-21T08:27:59;22.90;;;20.10;;
57846;SDS011;43675;50.030;21.952;2024-02-21T08:30:26;22.20;;;20.00;;
57846;SDS011;43675;50.030;21.952;2024-02-21T08:32:53;21.80;;;19.70;;
57846;SDS011;43675;50.030;21.952;2024-02-21T08:35:20;20.90;;;18.70;;
57846;SDS011;43675;50.030;21.952;2024-02-21T08:37:48;20.90;;;18.50;;
57846;SDS011;43675;50.030;21.952;2024-02-21T08:40:14;21.40;;;19.20;;
57846;SDS011;43675;50.030;21.952;2024-02-21T08:42:42;23.30;;;18.70;;
57846;SDS011;43675;50.030;21.952;2024-02-21T08:45:14;21.10;;;19.00;;
57846;SDS011;43675;50.030;21.952;2024-02-21T08:47:41;21.40;;;19.10;;
57846;SDS011;43675;50.030;21.952;2024-02-21T08:50:08;21.60;;;19.20;;
57846;SDS011;43675;50.030;21.952;2024-02-21T08:52:35;21.50;;;19.20;;
57846;SDS011;43675;50.030;21.952;2024-02-21T08:55:02;21.40;;;19.20;;
57846;SDS011;43675;50.030;21.952;2024-02-21T08:57:29;22.10;;;19.40;;
57846;SDS011;43675;50.030;21.952;2024-02-21T08:59:55;24.20;;;21.00;;
57846;SDS011;43675;50.030;21.952;2024-02-21T09:02:22;23.00;;;20.40;;
57846;SDS011;43675;50.030;21.952;2024-02-21T09:04:48;21.00;;;18.80;;
57846;SDS011;43675;50.030;21.952;2024-02-21T09:07:15;20.70;;;18.50;;
57846;SDS011;43675;50.030;21.952;2024-02-21T09:09:41;20.60;;;18.40;;
57846;SDS011;43675;50.030;21.952;2024-02-21T09:12:08;20.40;;;18.30;;
57846;SDS011;43675;50.030;21.952;2024-02-21T09:14:36;20.40;;;18.30;;
57846;SDS011;43675;50.030;21.952;2024-02-21T09:17:04;21.40;;;18.40;;
57846;SDS011;43675;50.030;21.952;2024-02-21T09:19:30;20.10;;;18.20;;
57846;SDS011;43675;50.030;21.952;2024-02-21T09:21:57;20.30;;;17.70;;
57846;SDS011;43675;50.030;21.952;2024-02-21T09:24:24;20.00;;;17.60;;
57846;SDS011;43675;50.030;21.952;2024-02-21T09:26:50;20.00;;;18.00;;
57846;SDS011;43675;50.030;21.952;2024-02-21T09:29:17;19.40;;;17.40;;
57846;SDS011;43675;50.030;21.952;2024-02-21T09:31:43;19.50;;;17.70;;
57846;SDS011;43675;50.030;21.952;2024-02-21T09:34:10;20.50;;;18.50;;
57846;SDS011;43675;50.030;21.952;2024-02-21T09:36:36;20.40;;;18.20;;
57846;SDS011;43675;50.030;21.952;2024-02-21T09:39:03;20.30;;;18.10;;
57846;SDS011;43675;50.030;21.952;2024-02-21T09:41:36;20.60;;;18.60;;
57846;SDS011;43675;50.030;21.952;2024-02-21T09:44:11;20.40;;;18.40;;
57846;SDS011;43675;50.030;21.952;2024-02-21T09:46:45;19.90;;;18.00;;
57846;SDS011;43675;50.030;21.952;2024-02-21T09:52:02;19.20;;;17.40;;
57846;SDS011;43675;50.030;21.952;2024-02-21T09:54:32;20.40;;;18.50;;
57846;SDS011;43675;50.030;21.952;2024-02-21T09:57:05;18.80;;;17.00;;
57846;SDS011;43675;50.030;21.952;2024-02-21T09:59:32;19.50;;;17.60;;
57846;SDS011;43675;50.030;21.952;2024-02-21T10:04:33;19.30;;;17.30;;
57846;SDS011;43675;50.030;21.952;2024-02-21T10:07:00;19.40;;;17.20;;
57846;SDS011;43675;50.030;21.952;2024-02-21T10:09:27;19.20;;;17.30;;
57846;SDS011;43675;50.030;21.952;2024-02-21T10:11:55;19.60;;;17.70;;
57846;SDS011;43675;50.030;21.952;2024-02-21T10:14:22;20.40;;;18.30;;
57846;SDS011;43675;50.030;21.952;2024-02-21T10:16:55;19.80;;;17.80;;
57846;SDS011;43675;50.030;21.952;2024-02-21T10:19:23;19.30;;;17.50;;
57846;SDS011;43675;50.030;21.952;2024-02-21T10:22:03;19.50;;;17.60;;
57846;SDS011;43675;50.030;21.952;2024-02-21T10:24:31;19.20;;;17.20;;
57846;SDS011;43675;50.030;21.952;2024-02-21T10:27:01;18.90;;;17.10;;
57846;SDS011;43675;50.030;21.952;2024-02-21T10:29:30;19.60;;;17.80;;
57846;SDS011;43675;50.030;21.952;2024-02-21T10:32:07;18.90;;;17.10;;
57846;SDS011;43675;50.030;21.952;2024-02-21T10:34:35;19.40;;;17.50;;
57846;SDS011;43675;50.030;21.952;2024-02-21T10:37:08;18.80;;;17.10;;
57846;SDS011;43675;50.030;21.952;2024-02-21T10:39:37;18.40;;;16.50;;
57846;SDS011;43675;50.030;21.952;2024-02-21T10:42:05;17.50;;;15.80;;
57846;SDS011;43675;50.030;21.952;2024-02-21T10:44:33;17.60;;;15.90;;
57846;SDS011;43675;50.030;21.952;2024-02-21T10:47:05;17.30;;;15.60;;
57846;SDS011;43675;50.030;21.952;2024-02-21T10:49:41;16.50;;;15.10;;
57846;SDS011;43675;50.030;21.952;2024-02-21T10:52:12;16.80;;;15.30;;
57846;SDS011;43675;50.030;21.952;2024-02-21T10:55:26;17.20;;;15.70;;
57846;SDS011;43675;50.030;21.952;2024-02-21T11:00:04;17.00;;;15.40;;
57846;SDS011;43675;50.030;21.952;2024-02-21T11:02:38;17.80;;;16.20;;
57846;SDS011;43675;50.030;21.952;2024-02-21T11:05:06;16.80;;;15.40;;
57846;SDS011;43675;50.030;21.952;2024-02-21T11:07:35;16.80;;;15.60;;
57846;SDS011;43675;50.030;21.952;2024-02-21T11:10:03;17.20;;;15.70;;
57846;SDS011;43675;50.030;21.952;2024-02-21T11:12:32;17.30;;;15.70;;
57846;SDS011;43675;50.030;21.952;2024-02-21T11:15:05;16.90;;;15.40;;
57846;SDS011;43675;50.030;21.952;2024-02-21T11:17:32;16.50;;;15.00;;
57846;SDS011;43675;50.030;21.952;2024-02-21T11:20:10;18.10;;;16.40;;
57846;SDS011;43675;50.030;21.952;2024-02-21T11:22:41;17.00;;;15.50;;
57846;SDS011;43675;50.030;21.952;2024-02-21T11:25:08;16.60;;;15.20;;
57846;SDS011;43675;50.030;21.952;2024-02-21T11:27:35;17.80;;;16.10;;
57846;SDS011;43675;50.030;21.952;2024-02-21T11:30:03;17.60;;;15.90;;
57846;SDS011;43675;50.030;21.952;2024-02-21T11:32:31;17.60;;;15.90;;
57846;SDS011;43675;50.030;21.952;2024-02-21T11:37:32;24.10;;;21.90;;
57846;SDS011;43675;50.030;21.952;2024-02-21T11:40:00;27.50;;;24.80;;
57846;SDS011;43675;50.030;21.952;2024-02-21T11:42:27;24.70;;;22.40;;
57846;SDS011;43675;50.030;21.952;2024-02-21T11:44:54;44.90;;;40.30;;
57846;SDS011;43675;50.030;21.952;2024-02-21T11:47:21;52.50;;;47.00;;
57846;SDS011;43675;50.030;21.952;2024-02-21T11:49:48;34.00;;;30.80;;
57846;SDS011;43675;50.030;21.952;2024-02-21T11:52:16;28.00;;;25.40;;
57846;SDS011;43675;50.030;21.952;2024-02-21T11:54:42;42.00;;;37.80;;
57846;SDS011;43675;50.030;21.952;2024-02-21T11:57:09;41.30;;;37.10;;
57846;SDS011;43675;50.030;21.952;2024-02-21T11:59:37;34.40;;;30.80;;
57846;SDS011;43675;50.030;21.952;2024-02-21T12:02:13;22.80;;;20.60;;
57846;SDS011;43675;50.030;21.952;2024-02-21T12:04:41;29.20;;;26.20;;
57846;SDS011;43675;50.030;21.952;2024-02-21T12:07:08;29.80;;;26.70;;
57846;SDS011;43675;50.030;21.952;2024-02-21T12:09:35;26.70;;;24.20;;
57846;SDS011;43675;50.030;21.952;2024-02-21T12:12:02;31.10;;;28.10;;
57846;SDS011;43675;50.030;21.952;2024-02-21T12:14:35;26.70;;;23.90;;
57846;SDS011;43675;50.030;21.952;2024-02-21T12:17:02;28.00;;;25.30;;
57846;SDS011;43675;50.030;21.952;2024-02-21T12:19:29;30.90;;;28.00;;
57846;SDS011;43675;50.030;21.952;2024-02-21T12:21:56;32.70;;;29.50;;
57846;SDS011;43675;50.030;21.952;2024-02-21T12:24:25;22.30;;;20.20;;
57846;SDS011;43675;50.030;21.952;2024-02-21T12:26:53;22.40;;;20.40;;
57846;SDS011;43675;50.030;21.952;2024-02-21T12:29:21;27.10;;;24.50;;
57846;SDS011;43675;50.030;21.952;2024-02-21T12:31:48;29.00;;;26.30;;
57846;SDS011;43675;50.030;21.952;2024-02-21T12:34:15;40.10;;;35.80;;
57846;SDS011;43675;50.030;21.952;2024-02-21T12:36:45;25.70;;;23.20;;
57846;SDS011;43675;50.030;21.952;2024-02-21T12:39:12;19.30;;;17.50;;
57846;SDS011;43675;50.030;21.952;2024-02-21T12:41:39;18.30;;;16.70;;
57846;SDS011;43675;50.030;21.952;2024-02-21T12:44:09;20.00;;;18.10;;
57846;SDS011;43675;50.030;21.952;2024-02-21T12:46:37;28.50;;;25.50;;
57846;SDS011;43675;50.030;21.952;2024-02-21T12:49:10;20.30;;;18.40;;
57846;SDS011;43675;50.030;21.952;2024-02-21T12:51:36;20.40;;;18.60;;
57846;SDS011;43675;50.030;21.952;2024-02-21T12:54:03;18.60;;;17.00;;
57846;SDS011;43675;50.030;21.952;2024-02-21T12:56:29;51.30;;;38.90;;
57846;SDS011;43675;50.030;21.952;2024-02-21T12:59:03;26.80;;;23.90;;
57846;SDS011;43675;50.030;21.952;2024-02-21T13:01:29;25.40;;;22.90;;
57846;SDS011;43675;50.030;21.952;2024-02-21T13:03:56;19.10;;;17.20;;
57846;SDS011;43675;50.030;21.952;2024-02-21T13:06:22;17.80;;;16.20;;
57846;SDS011;43675;50.030;21.952;2024-02-21T13:08:50;40.10;;;31.00;;
57846;SDS011;43675;50.030;21.952;2024-02-21T13:11:17;38.10;;;31.70;;
57846;SDS011;43675;50.030;21.952;2024-02-21T13:13:50;22.50;;;20.50;;
57846;SDS011;43675;50.030;21.952;2024-02-21T13:16:16;25.00;;;22.70;;
57846;SDS011;43675;50.030;21.952;2024-02-21T13:18:43;33.50;;;29.60;;
57846;SDS011;43675;50.030;21.952;2024-02-21T13:21:10;26.80;;;24.20;;
57846;SDS011;43675;50.030;21.952;2024-02-21T13:23:36;20.40;;;18.60;;
57846;SDS011;43675;50.030;21.952;2024-02-21T13:26:04;56.40;;;37.20;;
57846;SDS011;43675;50.030;21.952;2024-02-21T13:28:31;155.80;;;80.70;;
57846;SDS011;43675;50.030;21.952;2024-02-21T13:30:58;146.30;;;73.20;;
57846;SDS011;43675;50.030;21.952;2024-02-21T13:33:25;148.00;;;75.00;;
57846;SDS011;43675;50.030;21.952;2024-02-21T13:35:51;141.30;;;75.60;;
57846;SDS011;43675;50.030;21.952;2024-02-21T13:38:18;72.70;;;45.20;;
57846;SDS011;43675;50.030;21.952;2024-02-21T13:40:45;90.80;;;55.00;;
57846;SDS011;43675;50.030;21.952;2024-02-21T13:43:11;26.50;;;23.60;;
57846;SDS011;43675;50.030;21.952;2024-02-21T13:45:38;26.80;;;23.00;;
57846;SDS011;43675;50.030;21.952;2024-02-21T13:48:05;86.20;;;51.60;;
57846;SDS011;43675;50.030;21.952;2024-02-21T13:50:32;64.30;;;41.60;;
57846;SDS011;43675;50.030;21.952;2024-02-21T13:52:59;53.50;;;36.50;;
57846;SDS011;43675;50.030;21.952;2024-02-21T13:55:25;88.80;;;52.60;;
57846;SDS011;43675;50.030;21.952;2024-02-21T13:57:59;110.00;;;60.50;;
57846;SDS011;43675;50.030;21.952;2024-02-21T14:00:25;110.40;;;63.60;;
57846;SDS011;43675;50.030;21.952;2024-02-21T14:02:52;143.90;;;82.60;;
57846;SDS011;43675;50.030;21.952;2024-02-21T14:05:18;98.10;;;55.40;;
57846;SDS011;43675;50.030;21.952;2024-02-21T14:07:45;51.10;;;35.20;;
57846;SDS011;43675;50.030;21.952;2024-02-21T14:10:12;79.10;;;48.00;;
57846;SDS011;43675;50.030;21.952;2024-02-21T14:12:38;73.50;;;47.30;;
57846;SDS011;43675;50.030;21.952;2024-02-21T14:15:05;51.00;;;36.70;;
57846;SDS011;43675;50.030;21.952;2024-02-21T14:17:32;43.10;;;33.90;;
57846;SDS011;43675;50.030;21.952;2024-02-21T14:19:59;44.70;;;35.70;;
57846;SDS011;43675;50.030;21.952;2024-02-21T14:22:33;68.40;;;47.00;;
57846;SDS011;43675;50.030;21.952;2024-02-21T14:25:00;77.40;;;53.30;;
57846;SDS011;43675;50.030;21.952;2024-02-21T14:27:27;45.60;;;36.30;;
57846;SDS011;43675;50.030;21.952;2024-02-21T14:29:53;34.50;;;28.90;;
57846;SDS011;43675;50.030;21.952;2024-02-21T14:32:26;35.60;;;30.30;;
57846;SDS011;43675;50.030;21.952;2024-02-21T14:34:53;39.00;;;35.00;;
57846;SDS011;43675;50.030;21.952;2024-02-21T14:37:19;28.00;;;25.30;;
57846;SDS011;43675;50.030;21.952;2024-02-21T14:39:46;27.40;;;24.60;;
57846;SDS011;43675;50.030;21.952;2024-02-21T14:42:13;36.70;;;31.20;;
57846;SDS011;43675;50.030;21.952;2024-02-21T14:44:39;28.90;;;25.60;;
57846;SDS011;43675;50.030;21.952;2024-02-21T14:47:06;31.40;;;26.30;;
57846;SDS011;43675;50.030;21.952;2024-02-21T14:49:33;35.30;;;28.80;;